Time;durP1;ratioP1;P1;durP2;ratioP2;P2;SDS_P1;SDS_P2;PMS_P1;PMS_P2;Temp;Humidity;BMP_temperature;BMP_pressure;BME280_temperature;BME280_humidity;BME280_pressure;Samples;Min_cycle;Max_cycle;Signal;HPM_P1;HPM_P2
2023/01/04 00:00:11;;;;;;;10.77;6.50;;;;;;;;;;5040166;28;90069;-56
2023/01/04 00:02:39;;;;;;;10.30;5.70;;;;;;;;;;5040449;28;89090;-56
2023/01/04 00:05:08;;;;;;;7.50;4.87;;;;;;;;;;5040364;27;86894;-56
2023/01/04 00:07:37;;;;;;;8.10;5.83;;;;;;;;;;5040180;28;87136;-56
2023/01/04 00:10:05;;;;;;;6.93;4.50;;;;;;;;;;5039127;28;87046;-56
2023/01/04 00:12:35;;;;;;;8.00;4.33;;;;;;;;;;5040013;27;87827;-56
2023/01/04 00:15:04;;;;;;;7.47;4.53;;;;;;;;;;5040513;27;86980;-56
2023/01/04 00:17:34;;;;;;;5.13;3.83;;;;;;;;;;5044288;27;86216;-56
2023/01/04 00:20:02;;;;;;;5.23;3.13;;;;;;;;;;5068010;27;89128;-56
2023/01/04 00:22:33;;;;;;;5.17;2.60;;;;;;;;;;5054072;27;87841;-57
2023/01/04 00:25:01;;;;;;;4.77;2.30;;;;;;;;;;5039579;27;88584;-58
2023/01/04 00:27:30;;;;;;;4.60;2.57;;;;;;;;;;5056478;27;87062;-58
2023/01/04 00:29:58;;;;;;;3.20;2.43;;;;;;;;;;5044103;27;89014;-56
2023/01/04 00:32:26;;;;;;;3.53;2.00;;;;;;;;;;5044593;27;88974;-56
2023/01/04 00:34:56;;;;;;;3.57;2.17;;;;;;;;;;5044868;27;87464;-57
2023/01/04 00:37:24;;;;;;;3.73;2.53;;;;;;;;;;5041386;27;87182;-57
2023/01/04 00:39:52;;;;;;;2.80;2.10;;;;;;;;;;5061392;27;89042;-57
2023/01/04 00:42:21;;;;;;;2.67;1.80;;;;;;;;;;5067451;27;87971;-56
2023/01/04 00:44:49;;;;;;;4.00;2.10;;;;;;;;;;5042105;27;88936;-56
2023/01/04 00:47:17;;;;;;;3.77;1.90;;;;;;;;;;5041205;27;87057;-57
2023/01/04 00:49:46;;;;;;;2.83;1.80;;;;;;;;;;5054752;27;89258;-57
2023/01/04 00:52:15;;;;;;;1.30;1.20;;;;;;;;;;5064248;27;89761;-57
2023/01/04 00:54:44;;;;;;;14.87;6.77;;;;;;;;;;5076031;27;87069;-57
2023/01/04 00:57:12;;;;;;;7.90;3.83;;;;;;;;;;5081736;27;86925;-57
2023/01/04 00:59:40;;;;;;;7.90;3.90;;;;;;;;;;5060740;27;88030;-56
2023/01/04 01:02:08;;;;;;;8.40;3.77;;;;;;;;;;5063032;27;88921;-57
2023/01/04 01:04:37;;;;;;;8.40;4.53;;;;;;;;;;5062939;27;87500;-56
2023/01/04 01:07:05;;;;;;;5.60;3.40;;;;;;;;;;5062455;27;86333;-56
2023/01/04 01:09:35;;;;;;;7.83;3.20;;;;;;;;;;5062133;27;89286;-57
2023/01/04 01:12:03;;;;;;;5.77;2.63;;;;;;;;;;5061353;27;88812;-57
2023/01/04 01:14:32;;;;;;;5.37;2.13;;;;;;;;;;5061849;27;88359;-56
2023/01/04 01:17:00;;;;;;;5.87;2.63;;;;;;;;;;5063187;27;86968;-57
2023/01/04 01:19:29;;;;;;;5.03;2.43;;;;;;;;;;5064703;27;89069;-57
2023/01/04 01:21:57;;;;;;;4.27;2.70;;;;;;;;;;5064736;27;88647;-57
2023/01/04 01:24:25;;;;;;;6.53;2.33;;;;;;;;;;5064906;27;86888;-56
2023/01/04 01:26:55;;;;;;;6.67;1.80;;;;;;;;;;5064467;27;87091;-57
2023/01/04 01:29:23;;;;;;;2.03;1.53;;;;;;;;;;5064300;27;89146;-57
2023/01/04 01:31:52;;;;;;;5.40;1.80;;;;;;;;;;5064688;27;88088;-57
2023/01/04 01:34:20;;;;;;;2.40;1.80;;;;;;;;;;5064936;27;86893;-56
2023/01/04 01:36:48;;;;;;;2.00;1.70;;;;;;;;;;5064248;27;87165;-57
2023/01/04 01:39:17;;;;;;;2.30;1.20;;;;;;;;;;5063941;27;89094;-57
2023/01/04 01:41:45;;;;;;;2.40;1.70;;;;;;;;;;5064423;27;89857;-57
2023/01/04 01:44:32;;;;;;;3.13;1.50;;;;;;;;;;5065858;27;87052;-57
2023/01/04 01:47:02;;;;;;;3.63;1.57;;;;;;;;;;5064031;27;87127;-56
2023/01/04 01:49:31;;;;;;;3.03;1.97;;;;;;;;;;5064228;27;89182;-56
2023/01/04 01:51:59;;;;;;;2.63;1.20;;;;;;;;;;5064077;27;87870;-56
2023/01/04 01:54:30;;;;;;;2.70;1.37;;;;;;;;;;5063966;27;87170;-56
2023/01/04 01:56:58;;;;;;;2.40;1.50;;;;;;;;;;5064421;27;86305;-56
2023/01/04 01:59:27;;;;;;;3.43;1.63;;;;;;;;;;5062481;27;88259;-56
2023/01/04 02:01:55;;;;;;;1.87;0.97;;;;;;;;;;5062811;27;89005;-56
2023/01/04 02:04:25;;;;;;;1.80;0.97;;;;;;;;;;5063778;27;87947;-56
2023/01/04 02:06:54;;;;;;;1.93;1.40;;;;;;;;;;5063673;27;86961;-56
2023/01/04 02:09:22;;;;;;;0.93;0.70;;;;;;;;;;5059032;27;88106;-56
2023/01/04 02:11:50;;;;;;;1.43;0.90;;;;;;;;;;5081576;27;88927;-57
2023/01/04 02:14:28;;;;;;;1.13;0.90;;;;;;;;;;5066406;27;87054;-57
2023/01/04 02:17:06;;;;;;;2.67;1.07;;;;;;;;;;5081036;27;86976;-58
2023/01/04 02:20:01;;;;;;;5.03;1.30;;;;;;;;;;5077269;27;89162;-57
2023/01/04 02:22:38;;;;;;;0.60;0.57;;;;;;;;;;5015070;27;88911;-57
2023/01/04 02:25:12;;;;;;;1.37;0.80;;;;;;;;;;5062666;27;86986;-57
2023/01/04 02:27:42;;;;;;;1.23;0.63;;;;;;;;;;5062709;27;87027;-56
2023/01/04 02:30:28;;;;;;;1.33;0.60;;;;;;;;;;5062857;27;90180;-58
2023/01/04 02:33:07;;;;;;;1.37;0.80;;;;;;;;;;5038124;27;88749;-56
2023/01/04 02:35:37;;;;;;;1.73;0.80;;;;;;;;;;5083188;27;86998;-56
2023/01/04 02:38:06;;;;;;;0.77;0.53;;;;;;;;;;5083737;27;86930;-56
2023/01/04 02:40:36;;;;;;;1.07;0.70;;;;;;;;;;5062435;27;89237;-58
2023/01/04 02:45:52;;;;;;;2.57;0.93;;;;;;;;;;5062819;27;87024;-56
2023/01/04 02:51:22;;;;;;;0.87;0.87;;;;;;;;;;5062332;27;89347;-56
2023/01/04 02:53:51;;;;;;;1.70;1.13;;;;;;;;;;5062931;27;88901;-56
2023/01/04 02:56:34;;;;;;;2.17;1.37;;;;;;;;;;5063001;27;87962;-56
2023/01/04 02:59:13;;;;;;;0.60;0.60;;;;;;;;;;5059325;27;87085;-58
2023/01/04 03:07:23;;;;;;;1.07;0.80;;;;;;;;;;5062335;27;87012;-56
2023/01/04 03:09:53;;;;;;;1.17;0.90;;;;;;;;;;5061339;27;86922;-56
2023/01/04 03:12:32;;;;;;;1.03;0.80;;;;;;;;;;5060542;27;88120;-56
2023/01/04 03:15:01;;;;;;;1.03;0.77;;;;;;;;;;5060489;27;88770;-57
2023/01/04 03:17:31;;;;;;;1.23;0.70;;;;;;;;;;5061582;27;86965;-56
2023/01/04 03:20:01;;;;;;;1.33;0.70;;;;;;;;;;5062842;27;87733;-56
2023/01/04 03:36:29;;;;;;;0.67;0.63;;;;;;;;;;5061974;27;87626;-57
2023/01/04 03:50:05;;;;;;;1.80;0.70;;;;;;;;;;5061676;27;88031;-57
2023/01/04 03:52:35;;;;;;;1.90;0.97;;;;;;;;;;5061773;27;87053;-57
2023/01/04 03:55:04;;;;;;;1.43;0.80;;;;;;;;;;5061950;27;87489;-57
2023/01/04 03:57:32;;;;;;;0.73;0.60;;;;;;;;;;5062243;27;88712;-56
2023/01/04 04:00:03;;;;;;;0.53;0.43;;;;;;;;;;5062471;27;87072;-57
2023/01/04 04:02:31;;;;;;;0.93;0.77;;;;;;;;;;5061647;27;87068;-57
2023/01/04 04:10:32;;;;;;;0.43;0.43;;;;;;;;;;5062343;27;86788;-57
2023/01/04 04:13:01;;;;;;;0.70;0.57;;;;;;;;;;5062025;27;87127;-58
2023/01/04 04:15:29;;;;;;;0.37;0.37;;;;;;;;;;5061548;27;91412;-55
2023/01/04 04:17:57;;;;;;;0.50;0.50;;;;;;;;;;5061855;27;87748;-57
2023/01/04 04:20:25;;;;;;;1.07;0.70;;;;;;;;;;5061876;27;87058;-57
2023/01/04 04:22:55;;;;;;;0.87;0.70;;;;;;;;;;5063746;27;87023;-57
2023/01/04 04:25:23;;;;;;;2.17;0.70;;;;;;;;;;5065298;27;89021;-57
2023/01/04 04:27:52;;;;;;;1.40;0.93;;;;;;;;;;5065942;27;87172;-58
2023/01/04 04:30:20;;;;;;;0.80;0.53;;;;;;;;;;5065097;27;86938;-57
2023/01/04 04:32:48;;;;;;;0.40;0.40;;;;;;;;;;5065369;27;86276;-57
2023/01/04 04:35:17;;;;;;;0.70;0.60;;;;;;;;;;5065173;27;89323;-57
2023/01/04 04:37:45;;;;;;;0.53;0.53;;;;;;;;;;5065253;27;88947;-57
2023/01/04 04:43:00;;;;;;;0.90;0.70;;;;;;;;;;5065232;27;87023;-57
2023/01/04 04:45:28;;;;;;;1.00;0.90;;;;;;;;;;5065413;27;87754;-57
2023/01/04 04:47:57;;;;;;;0.60;0.60;;;;;;;;;;5064768;27;89227;-57
2023/01/04 04:50:25;;;;;;;0.93;0.60;;;;;;;;;;5065378;27;86807;-57
2023/01/04 04:52:53;;;;;;;0.50;0.50;;;;;;;;;;5065153;27;86831;-57
2023/01/04 04:55:25;;;;;;;2.57;0.97;;;;;;;;;;5064643;27;87955;-57
2023/01/04 04:57:53;;;;;;;1.57;0.93;;;;;;;;;;5064811;27;88917;-57
2023/01/04 05:00:21;;;;;;;0.60;0.50;;;;;;;;;;5065347;27;86813;-58
2023/01/04 05:02:50;;;;;;;1.87;0.63;;;;;;;;;;5064789;27;87353;-57
2023/01/04 05:05:18;;;;;;;1.97;1.03;;;;;;;;;;5064279;27;90087;-57
2023/01/04 05:07:46;;;;;;;0.53;0.47;;;;;;;;;;5064596;27;87313;-57
2023/01/04 05:10:15;;;;;;;0.50;0.50;;;;;;;;;;5065108;27;86931;-56
2023/01/04 05:12:58;;;;;;;2.27;0.50;;;;;;;;;;5064918;27;86895;-56
2023/01/04 05:15:27;;;;;;;0.70;0.70;;;;;;;;;;5064841;27;89340;-56
2023/01/04 05:17:55;;;;;;;0.93;0.60;;;;;;;;;;5064707;27;87598;-57
2023/01/04 05:20:24;;;;;;;0.50;0.50;;;;;;;;;;5064378;27;87117;-57
2023/01/04 05:22:52;;;;;;;0.73;0.70;;;;;;;;;;5064604;27;86376;-57
2023/01/04 05:25:20;;;;;;;0.70;0.70;;;;;;;;;;5064686;27;89212;-57
2023/01/04 05:27:50;;;;;;;0.60;0.50;;;;;;;;;;5064775;27;87844;-57
2023/01/04 05:33:04;;;;;;;0.93;0.50;;;;;;;;;;5064244;27;87326;-56
2023/01/04 05:35:33;;;;;;;0.40;0.40;;;;;;;;;;5064282;27;89140;-57
2023/01/04 05:38:01;;;;;;;0.60;0.60;;;;;;;;;;5064420;27;87626;-57
2023/01/04 05:40:29;;;;;;;0.40;0.30;;;;;;;;;;5064132;27;86999;-57
2023/01/04 05:42:59;;;;;;;0.40;0.40;;;;;;;;;;5064167;27;86898;-57
2023/01/04 05:45:27;;;;;;;0.40;0.40;;;;;;;;;;5063968;27;89130;-57
2023/01/04 05:47:56;;;;;;;0.33;0.33;;;;;;;;;;5064472;27;88883;-57
2023/01/04 05:50:24;;;;;;;1.07;0.60;;;;;;;;;;5064487;27;86996;-57
2023/01/04 05:52:53;;;;;;;0.87;0.50;;;;;;;;;;5064376;27;87057;-59
2023/01/04 05:55:21;;;;;;;0.87;0.60;;;;;;;;;;5063712;27;88798;-57
2023/01/04 05:57:49;;;;;;;0.63;0.40;;;;;;;;;;5063646;27;88826;-59
2023/01/04 06:00:20;;;;;;;1.27;0.80;;;;;;;;;;5064406;27;87078;-56
2023/01/04 06:02:51;;;;;;;0.50;0.50;;;;;;;;;;5064264;27;87017;-57
2023/01/04 06:05:19;;;;;;;0.50;0.50;;;;;;;;;;5063778;27;89157;-57
2023/01/04 06:07:48;;;;;;;0.63;0.43;;;;;;;;;;5064135;27;87857;-57
2023/01/04 06:10:16;;;;;;;0.43;0.43;;;;;;;;;;5063955;27;86959;-57
2023/01/04 06:12:44;;;;;;;0.60;0.57;;;;;;;;;;5064219;27;86245;-57
2023/01/04 06:15:13;;;;;;;0.60;0.50;;;;;;;;;;5063301;27;88386;-57
2023/01/04 06:17:42;;;;;;;0.43;0.43;;;;;;;;;;5062678;27;87778;-57
2023/01/04 06:20:11;;;;;;;0.67;0.40;;;;;;;;;;5063303;27;87944;-57
2023/01/04 06:22:40;;;;;;;0.40;0.33;;;;;;;;;;5063375;27;87103;-57
2023/01/04 06:25:09;;;;;;;0.43;0.43;;;;;;;;;;5063180;27;88125;-57
2023/01/04 06:27:37;;;;;;;0.73;0.53;;;;;;;;;;5063231;27;87823;-57
2023/01/04 06:30:06;;;;;;;0.40;0.40;;;;;;;;;;5063603;27;87079;-57
2023/01/04 06:32:34;;;;;;;0.40;0.40;;;;;;;;;;5064235;27;87059;-57
2023/01/04 06:35:04;;;;;;;1.10;0.73;;;;;;;;;;5063489;27;86757;-57
2023/01/04 06:37:32;;;;;;;0.50;0.50;;;;;;;;;;5063306;27;88891;-57
2023/01/04 06:40:02;;;;;;;0.53;0.50;;;;;;;;;;5063533;27;86741;-57
2023/01/04 06:42:45;;;;;;;0.40;0.30;;;;;;;;;;5063798;27;87012;-57
2023/01/04 06:45:13;;;;;;;0.70;0.70;;;;;;;;;;5062010;27;89889;-57
2023/01/04 06:47:42;;;;;;;0.30;0.30;;;;;;;;;;5062635;27;88725;-57
2023/01/04 06:50:12;;;;;;;1.30;0.53;;;;;;;;;;5062860;27;87052;-57
2023/01/04 06:52:40;;;;;;;0.43;0.30;;;;;;;;;;5062873;27;86860;-57
2023/01/04 06:55:09;;;;;;;0.67;0.67;;;;;;;;;;5062604;27;88285;-57
2023/01/04 06:57:37;;;;;;;0.30;0.30;;;;;;;;;;5062898;27;88305;-57
2023/01/04 07:00:07;;;;;;;0.50;0.50;;;;;;;;;;5062984;27;87074;-57
2023/01/04 07:02:36;;;;;;;0.47;0.47;;;;;;;;;;5062594;27;86320;-57
2023/01/04 07:05:04;;;;;;;0.70;0.70;;;;;;;;;;5062664;27;87903;-57
2023/01/04 07:07:34;;;;;;;0.20;0.20;;;;;;;;;;5063237;27;88932;-57
2023/01/04 07:10:03;;;;;;;0.50;0.50;;;;;;;;;;5063117;27;87961;-57
2023/01/04 07:12:37;;;;;;;0.47;0.43;;;;;;;;;;5063007;27;86990;-57
2023/01/04 07:15:05;;;;;;;0.60;0.50;;;;;;;;;;5062078;27;86953;-57
2023/01/04 07:17:54;;;;;;;0.30;0.30;;;;;;;;;;5062346;27;89783;-57
2023/01/04 07:20:22;;;;;;;0.67;0.57;;;;;;;;;;5061784;27;86777;-57
2023/01/04 07:22:52;;;;;;;0.53;0.47;;;;;;;;;;5062460;27;86953;-57
2023/01/04 07:25:20;;;;;;;1.13;0.67;;;;;;;;;;5061841;27;89085;-57
2023/01/04 07:27:51;;;;;;;0.53;0.40;;;;;;;;;;5062581;27;88915;-57
2023/01/04 07:30:20;;;;;;;0.40;0.40;;;;;;;;;;5062418;27;87324;-57
2023/01/04 07:32:48;;;;;;;0.27;0.27;;;;;;;;;;5062461;27;87018;-57
2023/01/04 07:35:16;;;;;;;0.47;0.43;;;;;;;;;;5061266;27;88731;-56
2023/01/04 07:37:45;;;;;;;0.33;0.30;;;;;;;;;;5062168;27;87777;-58
2023/01/04 07:40:15;;;;;;;0.30;0.30;;;;;;;;;;5062605;27;87082;-57
2023/01/04 07:42:43;;;;;;;0.57;0.40;;;;;;;;;;5062443;27;87056;-57
2023/01/04 07:45:12;;;;;;;0.50;0.40;;;;;;;;;;5062064;27;88194;-57
2023/01/04 07:47:40;;;;;;;0.70;0.70;;;;;;;;;;5061951;27;89021;-57
2023/01/04 07:50:09;;;;;;;0.70;0.57;;;;;;;;;;5062125;27;87841;-56
2023/01/04 07:52:37;;;;;;;0.53;0.53;;;;;;;;;;5061700;27;86992;-57
2023/01/04 07:55:06;;;;;;;1.30;0.50;;;;;;;;;;5061840;27;88170;-57
2023/01/04 07:57:35;;;;;;;0.40;0.40;;;;;;;;;;5060917;27;87777;-57
2023/01/04 08:00:04;;;;;;;0.40;0.40;;;;;;;;;;5061779;27;87978;-57
2023/01/04 08:02:33;;;;;;;0.40;0.40;;;;;;;;;;5061602;27;87091;-57
2023/01/04 08:05:02;;;;;;;1.40;0.30;;;;;;;;;;5062096;27;87976;-57
2023/01/04 08:07:31;;;;;;;0.40;0.40;;;;;;;;;;5062151;27;86729;-57
2023/01/04 08:09:59;;;;;;;0.93;0.60;;;;;;;;;;5062421;27;87004;-57
2023/01/04 08:12:27;;;;;;;0.50;0.50;;;;;;;;;;5061766;27;87145;-57
2023/01/04 08:14:57;;;;;;;0.30;0.30;;;;;;;;;;5061793;27;88230;-58
2023/01/04 08:17:25;;;;;;;0.47;0.47;;;;;;;;;;5062228;27;88985;-59
2023/01/04 08:19:54;;;;;;;0.67;0.60;;;;;;;;;;5061789;27;86949;-58
2023/01/04 08:22:22;;;;;;;0.30;0.30;;;;;;;;;;5061582;27;87018;-59
2023/01/04 08:24:50;;;;;;;0.43;0.43;;;;;;;;;;5061003;27;88833;-59
2023/01/04 08:27:19;;;;;;;0.40;0.40;;;;;;;;;;5061883;27;87884;-59
2023/01/04 08:29:47;;;;;;;0.30;0.30;;;;;;;;;;5062015;27;86750;-59
2023/01/04 08:32:17;;;;;;;3.73;0.50;;;;;;;;;;5061570;27;86785;-58
2023/01/04 08:34:45;;;;;;;0.40;0.40;;;;;;;;;;5060963;27;88336;-58
2023/01/04 08:37:13;;;;;;;0.50;0.50;;;;;;;;;;5061419;27;88787;-58
2023/01/04 08:39:42;;;;;;;1.07;0.70;;;;;;;;;;5061865;27;87023;-58
2023/01/04 08:42:16;;;;;;;0.50;0.50;;;;;;;;;;5062136;27;86914;-58
2023/01/04 08:44:59;;;;;;;0.50;0.43;;;;;;;;;;5061575;27;87995;-58
2023/01/04 08:47:30;;;;;;;0.40;0.40;;;;;;;;;;5061721;27;86783;-58
2023/01/04 08:49:58;;;;;;;0.53;0.50;;;;;;;;;;5061323;27;87820;-58
2023/01/04 08:52:35;;;;;;;0.30;0.30;;;;;;;;;;5060499;27;87034;-60
2023/01/04 08:55:03;;;;;;;0.77;0.20;;;;;;;;;;5061115;27;88144;-58
2023/01/04 08:57:39;;;;;;;0.20;0.20;;;;;;;;;;5061643;27;87774;-59
2023/01/04 09:00:09;;;;;;;0.83;0.30;;;;;;;;;;5061875;27;87049;-59
2023/01/04 09:02:39;;;;;;;0.70;0.70;;;;;;;;;;5059964;27;87046;-58
2023/01/04 09:05:08;;;;;;;0.70;0.40;;;;;;;;;;5061390;27;88088;-58
2023/01/04 09:07:36;;;;;;;0.37;0.37;;;;;;;;;;5061505;27;88820;-58
2023/01/04 09:10:05;;;;;;;0.60;0.30;;;;;;;;;;5065073;27;86815;-58
2023/01/04 09:12:33;;;;;;;0.20;0.20;;;;;;;;;;5064353;27;87085;-58
2023/01/04 09:15:01;;;;;;;0.60;0.57;;;;;;;;;;5064119;27;90237;-58
2023/01/04 09:17:30;;;;;;;0.43;0.43;;;;;;;;;;5064288;27;89659;-58
2023/01/04 09:19:59;;;;;;;0.50;0.50;;;;;;;;;;5064632;27;87114;-58
2023/01/04 09:22:28;;;;;;;0.30;0.30;;;;;;;;;;5064490;27;87083;-58
2023/01/04 09:24:56;;;;;;;0.43;0.43;;;;;;;;;;5064075;27;87995;-58
2023/01/04 09:27:25;;;;;;;0.77;0.30;;;;;;;;;;5064062;27;87968;-59
2023/01/04 09:29:53;;;;;;;1.00;0.63;;;;;;;;;;5064735;27;87012;-58
2023/01/04 09:32:22;;;;;;;0.40;0.40;;;;;;;;;;5065089;27;86217;-59
2023/01/04 09:34:50;;;;;;;1.80;0.40;;;;;;;;;;5064315;27;88288;-58
2023/01/04 09:37:20;;;;;;;0.40;0.40;;;;;;;;;;5063678;27;89072;-58
2023/01/04 09:39:48;;;;;;;0.40;0.40;;;;;;;;;;5064260;27;87964;-58
2023/01/04 09:42:17;;;;;;;0.30;0.30;;;;;;;;;;5064260;27;86996;-58
2023/01/04 09:44:46;;;;;;;1.03;0.57;;;;;;;;;;5063875;27;89159;-58
2023/01/04 09:47:36;;;;;;;0.53;0.30;;;;;;;;;;5064359;27;86976;-58
2023/01/04 09:50:06;;;;;;;0.50;0.50;;;;;;;;;;5064557;27;86776;-58
2023/01/04 09:52:41;;;;;;;0.20;0.20;;;;;;;;;;5063693;27;87074;-58
2023/01/04 09:55:10;;;;;;;1.13;0.60;;;;;;;;;;5063799;27;88147;-58
2023/01/04 09:57:59;;;;;;;0.97;0.40;;;;;;;;;;5064925;27;86502;-58
2023/01/04 10:00:28;;;;;;;0.60;0.60;;;;;;;;;;5064270;27;86880;-58
2023/01/04 10:02:57;;;;;;;0.30;0.30;;;;;;;;;;5064476;27;86978;-58
2023/01/04 10:05:27;;;;;;;1.20;0.40;;;;;;;;;;5063131;27;89986;-58
2023/01/04 10:07:56;;;;;;;0.30;0.30;;;;;;;;;;5063530;27;89861;-58
2023/01/04 10:10:30;;;;;;;0.30;0.30;;;;;;;;;;5060706;27;87041;-58
2023/01/04 10:13:00;;;;;;;0.60;0.60;;;;;;;;;;5058094;27;87038;-58
2023/01/04 10:15:31;;;;;;;0.40;0.40;;;;;;;;;;5060704;27;88228;-58
2023/01/04 10:18:14;;;;;;;0.43;0.40;;;;;;;;;;5061106;27;88829;-58
2023/01/04 10:21:05;;;;;;;0.30;0.30;;;;;;;;;;5061172;27;87025;-58
2023/01/04 10:24:05;;;;;;;0.63;0.40;;;;;;;;;;5062365;27;86519;-58
2023/01/04 10:26:35;;;;;;;0.30;0.30;;;;;;;;;;5051937;27;88260;-58
2023/01/04 10:29:16;;;;;;;0.20;0.20;;;;;;;;;;5043822;27;89008;-58
2023/01/04 10:31:44;;;;;;;0.83;0.63;;;;;;;;;;5051737;27;87959;-58
2023/01/04 10:34:17;;;;;;;2.00;0.37;;;;;;;;;;5058450;27;86777;-58
2023/01/04 10:36:46;;;;;;;0.40;0.40;;;;;;;;;;5044757;27;89183;-58
2023/01/04 10:39:17;;;;;;;0.40;0.40;;;;;;;;;;5046727;27;89227;-58
2023/01/04 10:41:46;;;;;;;1.00;0.37;;;;;;;;;;5052739;27;87101;-58
2023/01/04 10:44:16;;;;;;;0.33;0.33;;;;;;;;;;5043172;27;87342;-58
2023/01/04 10:46:45;;;;;;;0.30;0.20;;;;;;;;;;5043228;28;88704;-59
2023/01/04 10:49:16;;;;;;;1.27;0.50;;;;;;;;;;5044454;27;86743;-59
2023/01/04 10:51:46;;;;;;;0.40;0.40;;;;;;;;;;5059354;27;88216;-58
2023/01/04 10:54:19;;;;;;;0.30;0.30;;;;;;;;;;5062417;27;86955;-58
2023/01/04 10:56:49;;;;;;;0.30;0.30;;;;;;;;;;5060700;27;89093;-58
2023/01/04 10:59:19;;;;;;;0.57;0.37;;;;;;;;;;5061521;27;89871;-58
2023/01/04 11:01:49;;;;;;;0.67;0.40;;;;;;;;;;5063433;27;87060;-59
2023/01/04 11:04:19;;;;;;;0.30;0.30;;;;;;;;;;5045304;27;86916;-58
2023/01/04 11:06:49;;;;;;;0.50;0.50;;;;;;;;;;5041748;27;89121;-58
2023/01/04 11:09:19;;;;;;;0.40;0.40;;;;;;;;;;5042433;27;88745;-59
2023/01/04 11:11:52;;;;;;;0.30;0.30;;;;;;;;;;5044020;27;87024;-58
2023/01/04 11:14:20;;;;;;;0.47;0.40;;;;;;;;;;5056209;27;86406;-59
2023/01/04 11:16:49;;;;;;;0.30;0.30;;;;;;;;;;5049256;27;89335;-58
2023/01/04 11:19:18;;;;;;;0.63;0.50;;;;;;;;;;5051824;27;88291;-58
2023/01/04 11:21:47;;;;;;;0.70;0.40;;;;;;;;;;5052547;27;87921;-58
2023/01/04 11:24:15;;;;;;;0.37;0.37;;;;;;;;;;5043371;27;87017;-59
2023/01/04 11:27:04;;;;;;;0.40;0.40;;;;;;;;;;5048919;27;87785;-58
2023/01/04 11:29:34;;;;;;;0.53;0.43;;;;;;;;;;5060273;27;86921;-58
2023/01/04 11:32:05;;;;;;;0.30;0.30;;;;;;;;;;5062770;27;87004;-59
2023/01/04 11:34:43;;;;;;;1.70;0.40;;;;;;;;;;5062899;27;87127;-58
2023/01/04 11:37:23;;;;;;;0.20;0.20;;;;;;;;;;5049889;27;89551;-58
2023/01/04 11:39:52;;;;;;;0.20;0.20;;;;;;;;;;5083151;27;87857;-58
2023/01/04 11:42:22;;;;;;;1.50;0.63;;;;;;;;;;5072298;27;87046;-58
2023/01/04 11:44:58;;;;;;;0.70;0.50;;;;;;;;;;5062527;27;86953;-58
2023/01/04 11:47:27;;;;;;;0.47;0.47;;;;;;;;;;5061796;27;89970;-58
2023/01/04 11:50:00;;;;;;;0.50;0.50;;;;;;;;;;5062583;27;88925;-58
2023/01/04 11:52:29;;;;;;;0.93;0.50;;;;;;;;;;5062488;27;87095;-58
2023/01/04 11:54:58;;;;;;;1.50;0.37;;;;;;;;;;5076686;27;87074;-59
2023/01/04 11:57:27;;;;;;;0.90;0.60;;;;;;;;;;5082538;27;88051;-59
2023/01/04 12:00:08;;;;;;;1.17;0.30;;;;;;;;;;5083003;27;88964;-58
2023/01/04 12:02:36;;;;;;;0.30;0.30;;;;;;;;;;5067624;27;87061;-57
2023/01/04 12:05:25;;;;;;;1.03;0.47;;;;;;;;;;5062347;27;86295;-58
2023/01/04 12:07:58;;;;;;;0.73;0.50;;;;;;;;;;5062248;27;89231;-58
2023/01/04 12:10:27;;;;;;;0.30;0.30;;;;;;;;;;5062085;27;88764;-58
2023/01/04 12:12:57;;;;;;;0.30;0.30;;;;;;;;;;5062293;27;88017;-58
2023/01/04 12:15:27;;;;;;;1.00;0.50;;;;;;;;;;5054396;27;86996;-58
2023/01/04 12:17:56;;;;;;;0.20;0.20;;;;;;;;;;5041386;27;89207;-58
2023/01/04 12:20:25;;;;;;;1.57;0.60;;;;;;;;;;5042683;27;88948;-59
2023/01/04 12:22:53;;;;;;;0.53;0.40;;;;;;;;;;5041406;27;87081;-59
2023/01/04 12:25:26;;;;;;;0.43;0.43;;;;;;;;;;5041651;28;86920;-58
2023/01/04 12:27:55;;;;;;;0.40;0.33;;;;;;;;;;5041395;28;89206;-60
2023/01/04 12:30:35;;;;;;;1.73;0.80;;;;;;;;;;5041711;28;89037;-59
2023/01/04 12:33:18;;;;;;;1.17;0.70;;;;;;;;;;5042637;27;86977;-59
2023/01/04 12:36:05;;;;;;;0.53;0.30;;;;;;;;;;5064543;27;88297;-59
2023/01/04 12:38:52;;;;;;;1.53;0.60;;;;;;;;;;5081819;27;90202;-59
2023/01/04 12:41:20;;;;;;;0.30;0.30;;;;;;;;;;5082380;27;88917;-58
2023/01/04 12:43:49;;;;;;;0.50;0.50;;;;;;;;;;5084362;27;86708;-59
2023/01/04 12:49:42;;;;;;;1.90;0.50;;;;;;;;;;5055262;27;88086;-58
2023/01/04 12:52:29;;;;;;;0.93;0.40;;;;;;;;;;5065291;27;88951;-58
2023/01/04 12:55:33;;;;;;;0.57;0.50;;;;;;;;;;5065253;27;86837;-58
2023/01/04 12:58:39;;;;;;;2.30;0.40;;;;;;;;;;5055328;27;86624;-57
2023/01/04 13:01:27;;;;;;;3.50;0.93;;;;;;;;;;5064425;27;87884;-58
2023/01/04 13:03:57;;;;;;;1.40;0.60;;;;;;;;;;5065035;27;88867;-57
2023/01/04 13:06:33;;;;;;;8.73;5.73;;;;;;;;;;5064489;27;87802;-57
2023/01/04 13:09:01;;;;;;;22.47;12.53;;;;;;;;;;5065002;27;86893;-57
2023/01/04 13:12:00;;;;;;;31.27;17.97;;;;;;;;;;5064199;27;89243;-57
2023/01/04 13:14:30;;;;;;;25.67;17.60;;;;;;;;;;5001248;28;88770;-56
2023/01/04 13:17:04;;;;;;;22.37;15.47;;;;;;;;;;5050374;27;86831;-57
2023/01/04 13:19:33;;;;;;;17.07;12.53;;;;;;;;;;5063783;27;87056;-57
2023/01/04 13:22:01;;;;;;;17.03;12.10;;;;;;;;;;5063341;27;87345;-56
2023/01/04 13:24:30;;;;;;;12.93;9.77;;;;;;;;;;5064125;27;88957;-56
2023/01/04 13:26:59;;;;;;;17.37;10.27;;;;;;;;;;5064418;27;87043;-56
2023/01/04 13:29:28;;;;;;;11.50;8.50;;;;;;;;;;5063960;27;87200;-57
2023/01/04 13:31:58;;;;;;;9.37;7.73;;;;;;;;;;5063993;27;90383;-57
2023/01/04 13:34:27;;;;;;;8.37;7.13;;;;;;;;;;5063986;27;89792;-56
2023/01/04 13:37:03;;;;;;;9.90;7.07;;;;;;;;;;5064302;27;86992;-56
2023/01/04 13:39:31;;;;;;;13.73;7.30;;;;;;;;;;5064274;27;86774;-57
2023/01/04 13:41:59;;;;;;;6.07;4.70;;;;;;;;;;5064199;27;89241;-57
2023/01/04 13:44:32;;;;;;;6.73;5.57;;;;;;;;;;5064141;27;88925;-56
2023/01/04 13:47:22;;;;;;;7.23;4.73;;;;;;;;;;5064075;27;87071;-56
2023/01/04 13:49:51;;;;;;;6.73;4.37;;;;;;;;;;5064616;27;86305;-56
2023/01/04 13:52:23;;;;;;;4.33;3.13;;;;;;;;;;5064079;27;89181;-56
2023/01/04 13:55:11;;;;;;;6.27;4.10;;;;;;;;;;5062449;27;87187;-56
2023/01/04 13:57:40;;;;;;;4.60;3.87;;;;;;;;;;5063890;27;88988;-57
2023/01/04 14:00:11;;;;;;;3.03;2.73;;;;;;;;;;5064116;27;86876;-56
2023/01/04 14:02:40;;;;;;;3.60;2.83;;;;;;;;;;5062731;27;88274;-56
2023/01/04 14:05:14;;;;;;;3.47;3.00;;;;;;;;;;5063302;27;87776;-56
2023/01/04 14:07:43;;;;;;;3.13;2.80;;;;;;;;;;5063408;27;87184;-56
2023/01/04 14:10:14;;;;;;;3.83;2.57;;;;;;;;;;5064014;27;86998;-56
2023/01/04 14:12:44;;;;;;;2.97;2.63;;;;;;;;;;5063675;27;89290;-56
2023/01/04 14:15:15;;;;;;;2.40;1.90;;;;;;;;;;5064236;27;89002;-56
2023/01/04 14:17:49;;;;;;;4.30;2.47;;;;;;;;;;5064137;27;87020;-56
2023/01/04 14:20:33;;;;;;;1.87;1.77;;;;;;;;;;5063595;27;86987;-56
2023/01/04 14:23:01;;;;;;;2.60;2.13;;;;;;;;;;5062577;27;89076;-56
2023/01/04 14:25:39;;;;;;;3.73;1.83;;;;;;;;;;5063365;27;89664;-57
2023/01/04 14:28:23;;;;;;;2.00;1.80;;;;;;;;;;5063915;27;87031;-56
2023/01/04 14:30:52;;;;;;;2.03;1.47;;;;;;;;;;5047235;27;87272;-56
2023/01/04 14:33:24;;;;;;;2.57;1.80;;;;;;;;;;5063100;27;89086;-57
2023/01/04 14:36:01;;;;;;;1.93;1.30;;;;;;;;;;5062947;27;87951;-56
2023/01/04 14:38:29;;;;;;;2.67;1.60;;;;;;;;;;5063520;27;86997;-56
2023/01/04 14:40:58;;;;;;;1.70;1.30;;;;;;;;;;5063351;27;86315;-56
2023/01/04 14:43:33;;;;;;;2.20;1.27;;;;;;;;;;5062810;27;88201;-56
2023/01/04 14:46:02;;;;;;;1.73;0.90;;;;;;;;;;5062933;27;87912;-56
2023/01/04 14:48:31;;;;;;;1.40;1.20;;;;;;;;;;5062359;27;87960;-56
2023/01/04 14:50:59;;;;;;;3.37;1.53;;;;;;;;;;5063153;27;87087;-56
2023/01/04 14:53:28;;;;;;;2.70;1.30;;;;;;;;;;5063066;27;89364;-56
2023/01/04 14:55:56;;;;;;;1.27;1.03;;;;;;;;;;5063228;27;89003;-57
2023/01/04 14:58:25;;;;;;;3.47;1.97;;;;;;;;;;5063151;27;86930;-57
2023/01/04 15:00:53;;;;;;;1.03;0.93;;;;;;;;;;5062779;27;87111;-56
2023/01/04 15:03:21;;;;;;;1.90;0.73;;;;;;;;;;5062766;27;88240;-56
2023/01/04 15:05:51;;;;;;;1.37;0.90;;;;;;;;;;5062486;27;86432;-56
2023/01/04 15:08:20;;;;;;;1.77;0.90;;;;;;;;;;5062718;27;87012;-57
2023/01/04 15:10:48;;;;;;;1.37;0.83;;;;;;;;;;5062661;27;86918;-56
2023/01/04 15:13:25;;;;;;;1.03;0.60;;;;;;;;;;5062600;27;90108;-58
2023/01/04 15:15:53;;;;;;;1.53;0.80;;;;;;;;;;5062844;27;89913;-56
2023/01/04 15:18:21;;;;;;;4.10;1.00;;;;;;;;;;5062874;27;86739;-56
2023/01/04 15:20:51;;;;;;;0.70;0.60;;;;;;;;;;5062135;27;86999;-56
2023/01/04 15:23:20;;;;;;;0.93;0.57;;;;;;;;;;5062109;27;87888;-57
2023/01/04 15:25:48;;;;;;;0.70;0.70;;;;;;;;;;5062151;27;88859;-56
2023/01/04 15:28:20;;;;;;;1.27;0.60;;;;;;;;;;5062894;27;87050;-58
2023/01/04 15:30:48;;;;;;;0.83;0.77;;;;;;;;;;5062998;27;86154;-56
2023/01/04 15:33:17;;;;;;;6.37;1.10;;;;;;;;;;5062296;27;88200;-57
2023/01/04 15:35:46;;;;;;;0.97;0.53;;;;;;;;;;5062433;27;87814;-56
2023/01/04 15:38:16;;;;;;;2.87;0.80;;;;;;;;;;5062048;27;87780;-56
2023/01/04 15:40:46;;;;;;;1.13;0.80;;;;;;;;;;5062455;27;87084;-58
2023/01/04 15:43:13;;;;;;;0.87;0.60;;;;;;;;;;5062355;27;87962;-58
2023/01/04 15:45:42;;;;;;;0.60;0.57;;;;;;;;;;5061937;27;87633;-58
2023/01/04 15:48:10;;;;;;;3.13;1.00;;;;;;;;;;5062434;27;87073;-57
2023/01/04 15:50:40;;;;;;;1.37;0.60;;;;;;;;;;5062559;27;86993;-58
2023/01/04 15:53:08;;;;;;;0.60;0.60;;;;;;;;;;5061904;27;89278;-57
2023/01/04 15:55:38;;;;;;;0.30;0.30;;;;;;;;;;5062376;27;88863;-57